Time;durP1;ratioP1;P1;durP2;ratioP2;P2;SDS_P1;SDS_P2;PMS_P1;PMS_P2;Temp;Humidity;BMP_temperature;BMP_pressure;BME280_temperature;BME280_humidity;BME280_pressure;Samples;Min_cycle;Max_cycle;Signal;HPM_P1;HPM_P2
2023/01/08 07:13:51;;;;;;;21.85;13.55;;;;;;;;;;5643758;23;20065;-82
2023/01/08 08:59:44;;;;;;;24.45;15.95;;;;;;;;;;5032380;23;20447;-83
2023/01/08 09:02:11;;;;;;;22.92;14.88;;;;;;;;;;4937092;29;20032;-83
2023/01/08 09:04:36;;;;;;;23.75;15.32;;;;;;;;;;4937050;29;20106;-82
2023/01/08 09:07:02;;;;;;;23.15;15.32;;;;;;;;;;4937309;29;20110;-85
2023/01/08 09:09:27;;;;;;;25.23;16.45;;;;;;;;;;4937073;29;20118;-90
2023/01/08 09:11:53;;;;;;;26.90;17.48;;;;;;;;;;4937384;29;20036;-84
2023/01/08 09:14:19;;;;;;;26.77;16.98;;;;;;;;;;4935475;29;20031;-89
2023/01/08 09:16:44;;;;;;;25.45;16.73;;;;;;;;;;4936808;29;20031;-85
2023/01/08 09:19:10;;;;;;;25.48;16.33;;;;;;;;;;4936896;29;20032;-88
2023/01/08 09:21:36;;;;;;;28.23;17.33;;;;;;;;;;4937390;29;20031;-84
2023/01/08 09:24:02;;;;;;;25.05;17.48;;;;;;;;;;4936940;29;20033;-88
2023/01/08 09:26:29;;;;;;;25.83;16.67;;;;;;;;;;4936946;29;20042;-81
2023/01/08 09:28:55;;;;;;;30.50;18.38;;;;;;;;;;4935654;29;20023;-85
2023/01/08 09:31:20;;;;;;;24.75;16.48;;;;;;;;;;4936482;29;20028;-85
2023/01/08 09:33:47;;;;;;;25.15;17.17;;;;;;;;;;4937102;29;20583;-88
2023/01/08 09:36:12;;;;;;;28.42;18.20;;;;;;;;;;4935595;29;20031;-83
2023/01/08 09:38:38;;;;;;;25.52;16.92;;;;;;;;;;4936636;29;20036;-81
2023/01/08 09:41:11;;;;;;;26.42;17.52;;;;;;;;;;4937131;29;20035;-91
2023/01/08 09:43:39;;;;;;;29.70;19.13;;;;;;;;;;4936820;29;20046;-82
2023/01/08 09:46:07;;;;;;;28.42;18.60;;;;;;;;;;4936716;29;20474;-84
2023/01/08 09:48:37;;;;;;;28.25;17.98;;;;;;;;;;4936157;29;20035;-91
2023/01/08 09:51:03;;;;;;;29.15;18.70;;;;;;;;;;4939853;29;20071;-88
2023/01/08 09:53:29;;;;;;;26.48;17.52;;;;;;;;;;4940337;29;20028;-82
2023/01/08 09:55:59;;;;;;;27.35;17.95;;;;;;;;;;4940367;29;20042;-82
2023/01/08 09:58:33;;;;;;;;;;;;;;;;;;4940636;29;20028;-85
2023/01/08 10:01:01;;;;;;;27.80;16.80;;;;;;;;;;4940223;29;19923;-89
2023/01/08 10:03:35;;;;;;;27.35;16.73;;;;;;;;;;4934197;29;20504;-81
2023/01/08 10:06:01;;;;;;;22.67;16.02;;;;;;;;;;4934117;29;20035;-81
2023/01/08 10:08:26;;;;;;;25.23;17.67;;;;;;;;;;4940051;29;20028;-84
2023/01/08 10:10:52;;;;;;;29.70;19.10;;;;;;;;;;4938688;29;20031;-82
2023/01/08 10:13:17;;;;;;;29.88;18.80;;;;;;;;;;4922578;29;20031;-81
2023/01/08 10:15:42;;;;;;;27.80;18.05;;;;;;;;;;4920680;29;20038;-81
2023/01/08 10:18:13;;;;;;;29.27;18.88;;;;;;;;;;4920941;29;20032;-88
2023/01/08 10:20:38;;;;;;;29.50;18.05;;;;;;;;;;4928899;29;20052;-83
2023/01/08 10:23:13;;;;;;;29.90;18.65;;;;;;;;;;4939853;29;20028;-84
2023/01/08 10:25:53;;;;;;;33.72;19.30;;;;;;;;;;4939643;29;20115;-82
2023/01/08 10:28:30;;;;;;;28.27;17.88;;;;;;;;;;4939662;29;20110;-87
2023/01/08 10:31:04;;;;;;;28.90;18.88;;;;;;;;;;4939083;29;20034;-89
2023/01/08 10:33:42;;;;;;;29.40;19.55;;;;;;;;;;4939997;29;20031;-88
2023/01/08 10:36:10;;;;;;;36.03;22.05;;;;;;;;;;4939462;29;20568;-82
2023/01/08 10:38:54;;;;;;;35.85;22.58;;;;;;;;;;4926972;29;20036;-84
2023/01/08 10:41:20;;;;;;;30.77;20.08;;;;;;;;;;4938586;29;20102;-81
2023/01/08 10:43:55;;;;;;;30.15;19.52;;;;;;;;;;4940167;29;20392;-87
2023/01/08 10:46:27;;;;;;;30.52;19.10;;;;;;;;;;4939640;29;20087;-84
2023/01/08 13:57:54;;;;;;;36.40;22.63;;;;;;;;;;5137171;23;20071;-81
2023/01/08 14:00:41;;;;;;;36.20;22.20;;;;;;;;;;4935287;29;20114;-80
2023/01/08 14:03:25;;;;;;;37.20;22.52;;;;;;;;;;4928469;29;20060;-80
2023/01/08 14:05:52;;;;;;;38.63;22.90;;;;;;;;;;4933916;29;20028;-83
2023/01/08 14:08:23;;;;;;;32.58;21.75;;;;;;;;;;4924250;29;20367;-81
2023/01/08 14:10:49;;;;;;;37.08;23.42;;;;;;;;;;4935636;29;20031;-82
2023/01/08 14:13:17;;;;;;;35.70;23.20;;;;;;;;;;4935095;29;20035;-82
2023/01/08 14:15:42;;;;;;;35.58;22.40;;;;;;;;;;4934965;29;20128;-81
2023/01/08 14:18:11;;;;;;;35.70;23.45;;;;;;;;;;4930098;29;20055;-82
2023/01/08 14:20:40;;;;;;;34.55;22.83;;;;;;;;;;4933214;29;20147;-85
2023/01/08 14:23:19;;;;;;;38.30;24.48;;;;;;;;;;4935745;29;20035;-81
2023/01/08 14:25:48;;;;;;;39.42;26.08;;;;;;;;;;4935575;29;20110;-82
2023/01/08 14:28:19;;;;;;;41.30;26.38;;;;;;;;;;4935693;29;20036;-81
2023/01/08 14:30:52;;;;;;;37.63;24.02;;;;;;;;;;4932624;29;20063;-82
2023/01/08 14:33:25;;;;;;;35.38;23.50;;;;;;;;;;4935685;29;20031;-82
2023/01/08 14:35:53;;;;;;;35.80;23.25;;;;;;;;;;4938348;29;20043;-82
2023/01/08 14:38:19;;;;;;;34.03;23.83;;;;;;;;;;4939217;29;20459;-81
2023/01/08 14:41:09;;;;;;;36.08;23.35;;;;;;;;;;4939458;29;20031;-87
2023/01/08 14:43:44;;;;;;;33.10;22.85;;;;;;;;;;4933540;29;20044;-84
2023/01/08 14:46:23;;;;;;;37.13;23.38;;;;;;;;;;4939131;29;20038;-90
2023/01/08 14:48:50;;;;;;;38.72;23.48;;;;;;;;;;4921650;29;20020;-82
2023/01/08 17:10:30;;;;;;;26.67;18.80;;;;;;;;;;4932428;29;20048;-84
2023/01/08 17:12:55;;;;;;;25.58;17.63;;;;;;;;;;4925348;29;20036;-90
2023/01/08 17:15:21;;;;;;;27.35;17.88;;;;;;;;;;4918283;29;20058;-87
2023/01/08 17:17:47;;;;;;;26.13;18.08;;;;;;;;;;4924038;29;20479;-91
2023/01/08 17:20:12;;;;;;;28.30;18.08;;;;;;;;;;4918209;29;20557;-89
2023/01/08 17:22:38;;;;;;;27.45;18.58;;;;;;;;;;4918045;29;20115;-91
2023/01/08 17:25:03;;;;;;;30.58;18.67;;;;;;;;;;4917980;29;20028;-90
2023/01/08 17:27:29;;;;;;;33.83;21.45;;;;;;;;;;4923558;29;20058;-86
2023/01/08 17:29:54;;;;;;;30.20;21.50;;;;;;;;;;4917684;29;20505;-92
2023/01/08 17:32:20;;;;;;;26.98;19.17;;;;;;;;;;4918047;29;20024;-91
2023/01/08 17:34:46;;;;;;;31.08;20.63;;;;;;;;;;4917498;29;20394;-92
2023/01/08 17:37:11;;;;;;;29.95;20.10;;;;;;;;;;4917527;29;20028;-89
2023/01/08 17:39:37;;;;;;;31.77;20.45;;;;;;;;;;4917621;29;20032;-89
2023/01/08 17:44:46;;;;;;;31.70;20.67;;;;;;;;;;4917227;29;20063;-91
2023/01/08 17:47:12;;;;;;;30.80;20.48;;;;;;;;;;4917764;29;20024;-92
2023/01/08 17:49:38;;;;;;;27.33;19.85;;;;;;;;;;4916563;29;20475;-88
2023/01/08 17:52:03;;;;;;;29.70;21.55;;;;;;;;;;4916221;29;20032;-91
2023/01/08 17:54:29;;;;;;;28.08;20.15;;;;;;;;;;4920275;29;20486;-88
2023/01/08 17:56:55;;;;;;;31.88;21.63;;;;;;;;;;4924663;29;20023;-88
2023/01/08 17:59:21;;;;;;;32.35;21.65;;;;;;;;;;4927073;29;20119;-85
2023/01/08 18:01:47;;;;;;;28.58;19.77;;;;;;;;;;4922999;29;20031;-86
2023/01/08 18:04:13;;;;;;;37.17;25.50;;;;;;;;;;4922115;29;20445;-85
2023/01/08 18:06:39;;;;;;;35.50;24.08;;;;;;;;;;4916875;29;20032;-88
2023/01/08 18:09:05;;;;;;;34.97;23.60;;;;;;;;;;4917479;29;20475;-88
2023/01/08 18:11:32;;;;;;;35.03;22.83;;;;;;;;;;4937978;29;20055;-88
2023/01/08 18:13:59;;;;;;;35.42;23.33;;;;;;;;;;4949385;29;20098;-86
2023/01/08 18:16:26;;;;;;;36.40;22.83;;;;;;;;;;4952495;29;20131;-88
2023/01/08 18:18:52;;;;;;;33.70;22.55;;;;;;;;;;4944733;28;20068;-84
2023/01/08 18:21:18;;;;;;;31.30;21.70;;;;;;;;;;4940822;29;20020;-88
2023/01/08 18:23:46;;;;;;;33.03;21.25;;;;;;;;;;4938909;29;20028;-86
2023/01/08 18:26:13;;;;;;;34.22;24.52;;;;;;;;;;4939907;29;20019;-87
2023/01/08 18:28:38;;;;;;;32.50;22.15;;;;;;;;;;4940558;29;20047;-91
2023/01/08 18:31:06;;;;;;;35.05;24.35;;;;;;;;;;4939624;29;20398;-86
2023/01/08 18:33:31;;;;;;;32.60;24.25;;;;;;;;;;4940078;29;20423;-87
2023/01/08 18:36:07;;;;;;;32.50;22.35;;;;;;;;;;4939816;29;20032;-87
2023/01/08 18:38:33;;;;;;;41.58;28.23;;;;;;;;;;4939722;29;20039;-84
2023/01/08 18:40:59;;;;;;;30.95;20.95;;;;;;;;;;4939462;29;20036;-85
2023/01/08 18:43:25;;;;;;;33.08;22.33;;;;;;;;;;4938861;29;20023;-90
2023/01/08 18:45:56;;;;;;;30.20;22.17;;;;;;;;;;4940038;29;20028;-93
2023/01/08 18:48:22;;;;;;;32.10;22.88;;;;;;;;;;4939375;29;20026;-87
2023/01/08 18:50:47;;;;;;;30.20;21.95;;;;;;;;;;4939656;29;20031;-87
2023/01/08 18:53:12;;;;;;;26.92;19.33;;;;;;;;;;4940174;29;20538;-93
2023/01/08 18:55:38;;;;;;;23.85;17.42;;;;;;;;;;4939373;29;20035;-89
2023/01/08 18:58:03;;;;;;;24.98;16.50;;;;;;;;;;4939006;29;20027;-86
2023/01/08 19:00:29;;;;;;;22.17;15.70;;;;;;;;;;4939440;29;20123;-87
2023/01/08 19:02:55;;;;;;;22.98;16.95;;;;;;;;;;4939084;29;20024;-86
2023/01/08 19:05:22;;;;;;;24.83;17.23;;;;;;;;;;4939011;29;20067;-86
2023/01/08 19:07:48;;;;;;;25.85;16.48;;;;;;;;;;4952056;29;20525;-86
2023/01/08 19:10:13;;;;;;;23.23;16.83;;;;;;;;;;4937233;29;20056;-86
2023/01/08 19:12:39;;;;;;;24.33;17.58;;;;;;;;;;4938616;29;20019;-85
2023/01/08 19:15:05;;;;;;;24.95;16.88;;;;;;;;;;4938719;29;20370;-85
2023/01/08 19:17:31;;;;;;;24.35;16.55;;;;;;;;;;4944651;29;20060;-84
2023/01/08 19:19:57;;;;;;;25.85;17.63;;;;;;;;;;4938690;29;20059;-86
2023/01/08 19:22:25;;;;;;;23.92;16.65;;;;;;;;;;4937236;29;20477;-85
2023/01/08 19:24:52;;;;;;;22.52;16.20;;;;;;;;;;4938505;29;20502;-84
2023/01/08 19:27:17;;;;;;;22.52;15.50;;;;;;;;;;4939071;29;20119;-82
2023/01/08 19:29:43;;;;;;;22.33;15.52;;;;;;;;;;4939926;28;20171;-84
2023/01/08 19:32:08;;;;;;;22.88;16.00;;;;;;;;;;4939922;29;20028;-83
2023/01/08 19:34:34;;;;;;;22.98;15.25;;;;;;;;;;4940868;29;20051;-83
2023/01/08 19:37:00;;;;;;;19.60;14.98;;;;;;;;;;4939521;29;20023;-83
2023/01/08 19:39:28;;;;;;;18.77;14.32;;;;;;;;;;4940509;29;20019;-82
2023/01/08 19:44:41;;;;;;;21.60;15.27;;;;;;;;;;4941516;29;20109;-87
2023/01/08 19:47:07;;;;;;;21.05;14.98;;;;;;;;;;4940117;29;20059;-93
2023/01/08 19:49:34;;;;;;;21.83;14.68;;;;;;;;;;4947808;29;20055;-89
2023/01/08 19:52:01;;;;;;;24.55;16.38;;;;;;;;;;4950270;29;20031;-84
2023/01/08 19:54:28;;;;;;;18.92;14.70;;;;;;;;;;4939451;29;20027;-89
2023/01/08 19:56:53;;;;;;;20.92;14.55;;;;;;;;;;4937353;29;20043;-83
2023/01/08 19:59:19;;;;;;;21.95;15.43;;;;;;;;;;4937930;29;20031;-84
2023/01/08 20:01:45;;;;;;;25.13;18.35;;;;;;;;;;4944716;29;20031;-85
2023/01/08 20:04:11;;;;;;;21.83;16.05;;;;;;;;;;4952237;28;20114;-86
2023/01/08 20:06:37;;;;;;;17.77;13.77;;;;;;;;;;4937574;29;20023;-84
2023/01/08 20:09:02;;;;;;;19.15;13.45;;;;;;;;;;4937587;29;20310;-82
2023/01/08 20:11:28;;;;;;;22.23;14.48;;;;;;;;;;4937401;29;20071;-84
2023/01/08 20:13:55;;;;;;;18.80;13.75;;;;;;;;;;4937616;29;20103;-86
2023/01/08 20:16:21;;;;;;;17.50;12.93;;;;;;;;;;4937514;29;20026;-84
2023/01/08 20:18:47;;;;;;;17.67;13.15;;;;;;;;;;4945506;28;20043;-84
2023/01/08 20:21:19;;;;;;;16.48;12.25;;;;;;;;;;4942135;29;20062;-92
2023/01/08 20:23:45;;;;;;;19.17;13.45;;;;;;;;;;4939696;29;20101;-89
2023/01/08 20:26:14;;;;;;;17.65;12.90;;;;;;;;;;4942425;29;20037;-89
2023/01/08 20:28:41;;;;;;;17.98;13.70;;;;;;;;;;4953215;29;20027;-84
2023/01/08 20:31:17;;;;;;;16.73;12.65;;;;;;;;;;4951573;28;20027;-83
2023/01/08 20:33:44;;;;;;;17.70;12.98;;;;;;;;;;4953806;28;20048;-89
2023/01/08 20:36:13;;;;;;;16.25;12.68;;;;;;;;;;4951804;28;20106;-83
2023/01/08 20:38:39;;;;;;;16.65;12.93;;;;;;;;;;4953886;28;20031;-82
2023/01/08 20:41:05;;;;;;;17.65;11.43;;;;;;;;;;4950165;29;20038;-79
2023/01/08 20:43:32;;;;;;;19.20;12.68;;;;;;;;;;4956269;28;20118;-81
2023/01/08 20:45:58;;;;;;;17.38;12.85;;;;;;;;;;4936133;29;20020;-83
2023/01/08 20:48:23;;;;;;;17.13;13.15;;;;;;;;;;4937071;29;20107;-84
2023/01/08 20:50:57;;;;;;;20.67;14.35;;;;;;;;;;4936780;29;20027;-83
2023/01/08 20:53:23;;;;;;;21.42;13.40;;;;;;;;;;4946040;29;20082;-83
2023/01/08 20:55:48;;;;;;;18.77;14.07;;;;;;;;;;4936642;29;20414;-84
2023/01/08 20:58:14;;;;;;;19.50;13.25;;;;;;;;;;4936788;29;20034;-84
2023/01/08 21:00:39;;;;;;;18.27;13.27;;;;;;;;;;4941553;29;20470;-85
2023/01/08 21:03:05;;;;;;;18.67;13.23;;;;;;;;;;4940700;28;20031;-84
2023/01/08 21:05:32;;;;;;;18.30;12.73;;;;;;;;;;4939071;29;20036;-87
2023/01/08 21:07:58;;;;;;;17.27;12.60;;;;;;;;;;4948741;29;20027;-88
2023/01/08 21:10:23;;;;;;;16.05;13.13;;;;;;;;;;4953547;28;20047;-84
2023/01/08 21:12:50;;;;;;;16.23;12.30;;;;;;;;;;4951072;29;20047;-89
2023/01/08 21:15:16;;;;;;;14.15;11.35;;;;;;;;;;4947709;28;20822;-86
2023/01/08 21:17:41;;;;;;;15.50;10.68;;;;;;;;;;4945074;29;20098;-84
2023/01/08 21:20:08;;;;;;;13.80;11.13;;;;;;;;;;4935616;29;20035;-85
2023/01/08 21:22:33;;;;;;;17.05;11.90;;;;;;;;;;4936884;29;20065;-85
2023/01/08 21:24:58;;;;;;;15.00;11.38;;;;;;;;;;4935267;29;20055;-88
2023/01/08 21:27:24;;;;;;;15.68;11.77;;;;;;;;;;4940571;29;20103;-86
2023/01/08 21:29:51;;;;;;;13.52;10.38;;;;;;;;;;4936474;29;20061;-85
2023/01/08 21:32:16;;;;;;;15.13;11.40;;;;;;;;;;4936565;29;20024;-89
2023/01/08 21:34:42;;;;;;;14.80;10.63;;;;;;;;;;4939514;29;20024;-88
2023/01/08 21:37:07;;;;;;;16.25;11.05;;;;;;;;;;4942235;29;20494;-89
2023/01/08 21:39:33;;;;;;;12.75;10.70;;;;;;;;;;4954592;29;20610;-86
2023/01/08 21:47:27;;;;;;;15.00;10.20;;;;;;;;;;4935856;29;20027;-82
2023/01/08 21:49:52;;;;;;;13.77;10.35;;;;;;;;;;4937079;29;20032;-85
2023/01/08 21:55:06;;;;;;;14.57;10.40;;;;;;;;;;4923739;29;20387;-91
2023/01/08 21:57:37;;;;;;;12.55;9.95;;;;;;;;;;4936967;29;20027;-91
2023/01/08 22:00:03;;;;;;;12.85;10.13;;;;;;;;;;4937418;29;20028;-92
2023/01/08 22:02:28;;;;;;;12.48;10.00;;;;;;;;;;4936633;29;20104;-91
2023/01/08 22:04:55;;;;;;;16.15;10.95;;;;;;;;;;4936865;29;20071;-92
2023/01/08 22:07:21;;;;;;;11.82;9.50;;;;;;;;;;4936353;29;20032;-86
2023/01/08 22:09:46;;;;;;;11.55;9.70;;;;;;;;;;4937817;29;20451;-90
2023/01/08 22:12:12;;;;;;;13.13;9.75;;;;;;;;;;4942631;29;20110;-89
2023/01/08 22:14:38;;;;;;;11.75;8.90;;;;;;;;;;4944830;29;20034;-90
2023/01/08 22:17:07;;;;;;;13.85;9.32;;;;;;;;;;4936613;29;20032;-90
2023/01/08 22:19:33;;;;;;;11.15;9.00;;;;;;;;;;4937001;29;20026;-92
2023/01/08 22:21:58;;;;;;;10.75;8.70;;;;;;;;;;4936501;29;20039;-93
2023/01/08 22:24:24;;;;;;;9.00;8.10;;;;;;;;;;4936186;29;20383;-90
2023/01/08 22:26:49;;;;;;;11.93;8.98;;;;;;;;;;4936156;29;20028;-91
2023/01/08 22:29:15;;;;;;;10.60;8.85;;;;;;;;;;4936129;29;20030;-90
2023/01/08 22:31:41;;;;;;;10.02;7.93;;;;;;;;;;4936221;29;20039;-87
2023/01/08 22:34:08;;;;;;;10.90;8.65;;;;;;;;;;4935814;29;20106;-88
2023/01/08 22:36:33;;;;;;;11.35;9.02;;;;;;;;;;4935756;28;20024;-85
2023/01/08 22:38:59;;;;;;;10.60;8.38;;;;;;;;;;4935190;29;20511;-86
2023/01/08 22:41:24;;;;;;;9.55;7.97;;;;;;;;;;4935941;29;20020;-86
2023/01/08 22:43:57;;;;;;;8.98;7.82;;;;;;;;;;4936849;29;20020;-89
2023/01/08 22:46:23;;;;;;;9.07;7.53;;;;;;;;;;4936086;29;20036;-90
2023/01/08 22:48:49;;;;;;;11.95;7.93;;;;;;;;;;4936524;29;20027;-89
2023/01/08 22:51:14;;;;;;;7.93;6.63;;;;;;;;;;4935727;29;20470;-90
2023/01/08 22:53:40;;;;;;;8.55;6.90;;;;;;;;;;4936056;29;20455;-90
2023/01/08 22:56:10;;;;;;;7.53;6.72;;;;;;;;;;4937802;29;20034;-90
2023/01/08 22:58:38;;;;;;;8.77;6.90;;;;;;;;;;4940592;29;20027;-91
2023/01/08 23:01:08;;;;;;;9.15;7.20;;;;;;;;;;4940666;29;20092;-86
2023/01/08 23:03:34;;;;;;;8.57;7.22;;;;;;;;;;4939345;29;20038;-93
2023/01/08 23:06:01;;;;;;;7.68;6.53;;;;;;;;;;4939444;29;20024;-90
2023/01/08 23:08:26;;;;;;;8.43;6.90;;;;;;;;;;4938102;29;20032;-88
2023/01/08 23:10:56;;;;;;;8.32;6.60;;;;;;;;;;4938937;29;20502;-92
2023/01/08 23:13:22;;;;;;;8.63;6.53;;;;;;;;;;4938108;29;20024;-91
2023/01/08 23:15:47;;;;;;;8.38;7.00;;;;;;;;;;4937673;29;20115;-88
2023/01/08 23:18:13;;;;;;;8.98;6.50;;;;;;;;;;4938558;29;20059;-88
